Aeroporto :
LOGIN :

Iscrizione | Disclaimer

   EN    FR    IT 

 










Sommario :    VFR   VFR Marginale   IFR   IFR Intensivo   IFR Molto Intensivo
Visibilità : 
Base nubi : 
>= 8 km
>= 3000ft
5 / 8 km
1000 / 3000 ft
1500m / 5 km
500 / 1000 ft
800 / 1500m
200 / 500 ft
< 800m
< 200 ft
Simboli :   Temporali  Nebbia  Neve Forte  Precipitazioni Forti  Vento > 20 kt
SIGMETs :   Varie  Temporali  Ghiacco  Turbolenza  Onda orograficha  Ceneri Vulcaniche







- Altitudine del aeroporto : 1411 ft
- Codice IATA : ZHI


LSZG - Grenchen

ULTIMO METAR :
  • 181950Z AUTO 08004KT CAVOK 13/07 Q1019

METARs OBSOLETI :
  • 181920Z AUTO 08004KT CAVOK 10/07 Q1019
  • 181850Z AUTO 07004KT CAVOK 11/07 Q1018
  • 181820Z AUTO 04004KT CAVOK 14/08 Q1018
  • 181750Z AUTO 06005KT CAVOK 15/08 Q1018
  • 181720Z AUTO 05006KT 9999 NCD 15/08 Q1018

TAF TAF LSZG
Valido dal 18 a 15 ore il 19 a 00 ore UTC


181425Z 1815/1824 09012KT CAVOK
PROB40 1820/1824 4500 BR BKN012
ATIS : +41 32 396 96 33
Nessun NOTAM noto per questo aeroporto.



MetMap, La meteo Aeronautica in un colpo d'occhio ! - Copyright ORBIFLY Dicembre 2007 - Disclaimer

ORBIFLY MET'MAP TEAM :

Programmazione e sviluppo : Alexandra Zaïnal
Concezione e sviluppo : Baudouin d'Aumeries
Co-Programmazione e sviluppo : Marc-Olivier Méhu
Supporto tecnico e logistico : Manuel Goepfert
Aiuto per la traduzione : Arnaldo La Scala

Contatto : metmap@orbifly.com




FONTI E CREDITI :

   NOAA